Time;durP1;ratioP1;P1;durP2;ratioP2;P2;SDS_P1;SDS_P2;PMS_P1;PMS_P2;Temp;Humidity;BMP_temperature;BMP_pressure;BME280_temperature;BME280_humidity;BME280_pressure;Samples;Min_cycle;Max_cycle;Signal;HPM_P1;HPM_P2
2024/01/22 00:00:35;;;;;;;11.57;5.88;;;7.60;99.90;;;;;;5072849;28;20119;-53
2024/01/22 00:03:02;;;;;;;10.32;4.80;;;7.60;99.90;;;;;;5072703;28;20128;-52
2024/01/22 00:05:27;;;;;;;11.65;5.05;;;7.60;99.90;;;;;;5072637;28;20063;-54
2024/01/22 00:07:53;;;;;;;12.20;4.82;;;7.70;99.90;;;;;;5072669;28;20037;-55
2024/01/22 00:10:19;;;;;;;9.52;4.88;;;7.80;99.90;;;;;;5072765;28;20036;-56
2024/01/22 00:12:44;;;;;;;10.07;5.28;;;7.60;99.90;;;;;;5072999;28;20037;-55
2024/01/22 00:15:10;;;;;;;10.60;5.82;;;7.80;99.90;;;;;;5072270;28;20480;-52
2024/01/22 00:17:36;;;;;;;10.15;5.38;;;7.70;99.90;;;;;;5072569;28;20040;-50
2024/01/22 00:20:02;;;;;;;12.25;5.22;;;7.70;99.90;;;;;;5072248;28;20040;-50
2024/01/22 00:22:28;;;;;;;10.48;5.30;;;7.80;99.90;;;;;;5072377;28;20045;-54
2024/01/22 00:24:54;;;;;;;9.38;5.22;;;7.90;99.90;;;;;;5072784;28;20078;-53
2024/01/22 00:27:20;;;;;;;9.45;5.35;;;7.90;99.90;;;;;;5072518;28;20082;-52
2024/01/22 00:29:45;;;;;;;11.88;5.10;;;7.90;99.90;;;;;;5071948;28;20537;-53
2024/01/22 00:32:11;;;;;;;12.88;4.85;;;7.90;99.90;;;;;;5072122;28;20036;-53
2024/01/22 00:34:37;;;;;;;9.35;4.85;;;7.90;99.90;;;;;;5072429;28;20040;-54
2024/01/22 00:37:03;;;;;;;9.63;5.05;;;8.00;99.90;;;;;;5071632;28;20433;-50
2024/01/22 00:39:29;;;;;;;10.10;4.82;;;8.00;99.90;;;;;;5072403;28;20052;-50
2024/01/22 00:41:56;;;;;;;6.80;4.32;;;8.10;99.90;;;;;;5071877;28;20399;-53
2024/01/22 00:44:22;;;;;;;8.80;4.60;;;8.20;99.90;;;;;;5072326;28;20044;-49
2024/01/22 00:46:48;;;;;;;8.57;4.32;;;8.20;99.90;;;;;;5072215;28;20037;-51
2024/01/22 00:49:14;;;;;;;8.25;3.60;;;8.40;99.90;;;;;;5071853;28;20040;-51
2024/01/22 00:51:39;;;;;;;8.95;4.32;;;8.40;99.90;;;;;;5072128;28;20074;-53
2024/01/22 00:54:05;;;;;;;6.72;3.85;;;8.50;99.90;;;;;;5071814;28;20036;-53
2024/01/22 00:56:31;;;;;;;9.73;4.10;;;8.60;99.90;;;;;;5071278;28;20040;-50
2024/01/22 00:58:56;;;;;;;7.45;3.53;;;8.70;99.90;;;;;;5071177;28;20119;-54
2024/01/22 01:01:22;;;;;;;7.90;3.47;;;8.70;99.90;;;;;;5071179;28;20032;-52
2024/01/22 01:03:48;;;;;;;7.93;3.85;;;8.70;99.90;;;;;;5070953;28;20139;-51
2024/01/22 01:06:14;;;;;;;6.65;4.32;;;8.90;99.90;;;;;;5070904;28;20075;-53
2024/01/22 01:08:40;;;;;;;6.32;3.47;;;8.90;99.90;;;;;;5071341;28;20072;-52
2024/01/22 01:11:05;;;;;;;6.63;3.83;;;9.10;99.90;;;;;;5071424;28;20048;-52
2024/01/22 01:13:31;;;;;;;8.65;3.80;;;9.00;99.90;;;;;;5070225;28;20036;-55
2024/01/22 01:15:57;;;;;;;9.15;4.18;;;9.10;99.90;;;;;;5071389;28;20412;-51
2024/01/22 01:18:22;;;;;;;7.38;3.38;;;9.00;99.90;;;;;;5071505;28;20072;-52
2024/01/22 01:20:48;;;;;;;7.90;4.30;;;9.00;99.90;;;;;;5071612;28;20043;-52
2024/01/22 01:23:14;;;;;;;9.10;4.05;;;9.00;99.90;;;;;;5071095;28;20083;-54
2024/01/22 01:25:39;;;;;;;10.18;4.47;;;9.00;99.90;;;;;;5071245;28;20064;-54
2024/01/22 01:28:05;;;;;;;8.65;4.05;;;9.00;99.90;;;;;;5071001;28;20036;-53
2024/01/22 01:30:31;;;;;;;10.43;4.20;;;9.00;99.90;;;;;;5071201;28;20032;-53
2024/01/22 01:32:56;;;;;;;7.00;3.33;;;9.00;99.90;;;;;;5070532;28;20032;-55
2024/01/22 01:35:22;;;;;;;8.48;4.00;;;8.90;99.90;;;;;;5071132;28;20127;-52
2024/01/22 01:37:48;;;;;;;8.75;4.22;;;8.90;99.90;;;;;;5070493;28;20058;-52
2024/01/22 01:40:13;;;;;;;10.07;4.72;;;8.90;99.90;;;;;;5069977;28;20043;-55
2024/01/22 01:42:45;;;;;;;10.40;3.92;;;9.00;99.90;;;;;;5070956;28;20044;-52
2024/01/22 01:45:15;;;;;;;8.30;4.40;;;9.00;99.90;;;;;;5070188;28;20078;-53
2024/01/22 01:47:47;;;;;;;7.05;4.25;;;9.00;99.90;;;;;;5070479;28;20041;-55
2024/01/22 01:50:15;;;;;;;10.13;4.50;;;8.90;99.90;;;;;;5070787;28;20036;-53
2024/01/22 01:52:42;;;;;;;8.93;4.43;;;8.90;99.90;;;;;;5070843;28;20029;-54
2024/01/22 01:55:09;;;;;;;9.20;4.53;;;8.90;99.90;;;;;;5070529;28;20498;-55
2024/01/22 01:57:37;;;;;;;11.93;5.20;;;8.90;99.90;;;;;;5070541;28;20545;-56
2024/01/22 02:00:05;;;;;;;8.93;4.18;;;8.90;99.90;;;;;;5070713;28;20465;-54
2024/01/22 02:02:31;;;;;;;8.75;4.97;;;8.80;99.90;;;;;;5069772;28;20123;-56
2024/01/22 02:04:57;;;;;;;9.38;4.97;;;8.80;99.90;;;;;;5070168;28;20127;-54
2024/01/22 02:07:23;;;;;;;9.45;5.05;;;8.70;99.90;;;;;;5070079;28;20532;-54
2024/01/22 02:09:50;;;;;;;12.50;5.22;;;8.70;99.90;;;;;;5070203;28;20376;-56
2024/01/22 02:12:17;;;;;;;12.50;5.28;;;8.90;99.90;;;;;;5070051;28;20032;-52
2024/01/22 02:14:43;;;;;;;9.77;4.57;;;8.90;99.90;;;;;;5068992;28;20048;-53
2024/01/22 02:17:09;;;;;;;9.38;4.60;;;8.80;99.90;;;;;;5070350;28;20094;-52
2024/01/22 02:19:35;;;;;;;11.32;4.60;;;9.00;99.90;;;;;;5070549;28;20040;-53
2024/01/22 02:22:00;;;;;;;11.23;4.75;;;8.80;99.90;;;;;;5070601;28;20035;-53
2024/01/22 02:24:26;;;;;;;7.72;4.53;;;9.10;99.90;;;;;;5070230;28;20040;-51
2024/01/22 02:26:52;;;;;;;8.77;4.63;;;8.90;99.90;;;;;;5070044;28;20041;-54
2024/01/22 02:29:17;;;;;;;8.55;4.43;;;9.10;99.90;;;;;;5070096;28;20123;-54
2024/01/22 02:31:45;;;;;;;10.07;4.82;;;8.80;99.90;;;;;;5070207;28;20043;-54
2024/01/22 02:34:11;;;;;;;8.77;4.30;;;9.10;99.90;;;;;;5070684;28;20036;-54
2024/01/22 02:36:37;;;;;;;8.75;4.85;;;9.00;99.90;;;;;;5070020;28;20068;-54
2024/01/22 02:39:03;;;;;;;10.07;4.45;;;9.10;99.90;;;;;;5070322;28;20075;-54
2024/01/22 02:41:29;;;;;;;11.98;4.93;;;8.90;99.90;;;;;;5069006;28;20044;-50
2024/01/22 02:43:54;;;;;;;12.77;4.95;;;8.90;99.90;;;;;;5067337;28;20547;-54
2024/01/22 02:46:20;;;;;;;9.63;4.50;;;8.90;99.90;;;;;;5070505;28;20058;-52
2024/01/22 02:48:46;;;;;;;8.60;4.70;;;8.90;99.90;;;;;;5068957;28;20044;-54
2024/01/22 02:51:11;;;;;;;8.68;4.28;;;9.10;99.90;;;;;;5070552;28;20037;-55
2024/01/22 02:53:38;;;;;;;11.00;4.60;;;8.90;99.90;;;;;;5074082;28;20503;-53
2024/01/22 02:56:04;;;;;;;10.93;4.80;;;9.10;99.90;;;;;;5074081;28;20052;-56
2024/01/22 02:58:31;;;;;;;9.15;3.90;;;9.10;99.90;;;;;;5074143;28;20037;-56
2024/01/22 03:00:57;;;;;;;7.00;3.75;;;8.80;99.90;;;;;;5074150;28;20032;-54
2024/01/22 03:03:22;;;;;;;9.95;4.03;;;9.10;99.90;;;;;;5073948;28;20065;-53
2024/01/22 03:05:48;;;;;;;8.88;4.45;;;8.90;99.90;;;;;;5074148;28;20124;-53
2024/01/22 03:08:14;;;;;;;9.95;4.72;;;8.90;99.90;;;;;;5073231;28;20438;-52
2024/01/22 03:10:39;;;;;;;7.40;4.20;;;9.30;99.90;;;;;;5074294;28;20043;-54
2024/01/22 03:13:05;;;;;;;10.88;5.10;;;8.90;99.90;;;;;;5073074;28;20040;-54
2024/01/22 03:15:31;;;;;;;8.43;4.20;;;9.20;99.90;;;;;;5073413;28;20059;-53
2024/01/22 03:17:57;;;;;;;8.18;4.40;;;9.30;99.90;;;;;;5073720;28;20044;-53
2024/01/22 03:20:22;;;;;;;9.73;5.03;;;9.00;99.90;;;;;;5073848;28;20047;-53
2024/01/22 03:22:48;;;;;;;8.13;4.55;;;9.30;99.90;;;;;;5073596;28;20040;-52
2024/01/22 03:25:14;;;;;;;7.50;5.05;;;9.00;99.90;;;;;;5073192;28;20036;-48
2024/01/22 03:27:40;;;;;;;8.55;4.30;;;9.00;99.90;;;;;;5074074;28;20039;-53
2024/01/22 03:30:06;;;;;;;7.75;4.40;;;9.00;99.90;;;;;;5073200;28;20064;-53
2024/01/22 03:32:32;;;;;;;10.73;4.68;;;8.90;99.90;;;;;;5073421;28;20036;-54
2024/01/22 03:34:58;;;;;;;12.73;5.05;;;9.10;99.90;;;;;;5073317;28;20094;-52
2024/01/22 03:37:24;;;;;;;10.98;4.72;;;9.10;99.90;;;;;;5073084;28;20040;-55
2024/01/22 03:39:50;;;;;;;10.30;4.95;;;9.30;99.90;;;;;;5073169;28;20043;-50
2024/01/22 03:42:15;;;;;;;9.75;5.32;;;9.30;99.90;;;;;;5073392;28;20043;-53
2024/01/22 03:44:41;;;;;;;9.23;4.90;;;9.20;99.90;;;;;;5073066;28;20055;-52
2024/01/22 03:47:07;;;;;;;8.70;4.88;;;9.40;99.90;;;;;;5072096;28;20066;-55
2024/01/22 03:49:32;;;;;;;9.20;5.22;;;9.50;99.90;;;;;;5071784;28;20044;-55
2024/01/22 03:51:58;;;;;;;9.23;4.45;;;9.40;99.90;;;;;;5071484;28;20411;-51
2024/01/22 03:54:24;;;;;;;8.27;5.03;;;9.00;99.90;;;;;;5072877;28;20123;-54
2024/01/22 03:56:50;;;;;;;9.95;4.93;;;9.40;99.90;;;;;;5072918;28;20036;-51
2024/01/22 03:59:16;;;;;;;8.07;4.50;;;9.50;99.90;;;;;;5071780;28;20041;-53
2024/01/22 04:01:41;;;;;;;7.82;4.75;;;9.30;99.90;;;;;;5072951;28;20044;-54
2024/01/22 04:04:07;;;;;;;8.35;4.72;;;9.50;99.90;;;;;;5072204;28;20109;-52
2024/01/22 04:06:33;;;;;;;8.13;4.68;;;9.60;99.90;;;;;;5072545;28;20052;-51
2024/01/22 04:08:58;;;;;;;8.45;5.10;;;9.60;99.90;;;;;;5072783;28;20032;-53
2024/01/22 04:11:24;;;;;;;8.07;4.53;;;9.10;99.90;;;;;;5072791;28;20415;-52
2024/01/22 04:13:49;;;;;;;10.65;4.82;;;9.50;99.90;;;;;;5072795;28;20109;-52
2024/01/22 04:16:15;;;;;;;10.25;5.03;;;9.40;99.90;;;;;;5072094;28;20487;-54
2024/01/22 04:18:41;;;;;;;9.90;5.05;;;9.80;99.90;;;;;;5072651;28;20056;-52
2024/01/22 04:21:08;;;;;;;8.30;4.82;;;9.80;99.90;;;;;;5072591;28;20115;-50
2024/01/22 04:23:34;;;;;;;8.73;4.45;;;9.30;99.90;;;;;;5072283;28;20036;-53
2024/01/22 04:26:04;;;;;;;8.13;4.95;;;9.20;99.90;;;;;;5072707;28;20033;-52
2024/01/22 04:28:30;;;;;;;9.32;4.20;;;9.80;99.90;;;;;;5071333;28;20046;-53
2024/01/22 04:30:56;;;;;;;6.75;4.28;;;9.40;99.90;;;;;;5072272;28;20475;-51
2024/01/22 04:33:21;;;;;;;6.97;4.13;;;9.70;99.90;;;;;;5072289;28;20501;-52
2024/01/22 04:35:50;;;;;;;8.13;3.67;;;9.40;99.90;;;;;;5072370;28;20040;-52
2024/01/22 04:38:16;;;;;;;8.55;4.28;;;9.70;99.90;;;;;;5071715;28;20041;-50
2024/01/22 04:40:42;;;;;;;6.57;4.20;;;9.50;99.90;;;;;;5072164;28;20029;-51
2024/01/22 04:43:08;;;;;;;6.05;3.95;;;9.90;99.90;;;;;;5072267;28;20044;-50
2024/01/22 04:45:33;;;;;;;6.93;3.55;;;10.30;99.90;;;;;;5071913;28;20111;-50
2024/01/22 04:47:59;;;;;;;6.57;4.03;;;9.60;99.90;;;;;;5072022;28;20033;-54
2024/01/22 04:50:25;;;;;;;5.97;3.45;;;9.80;99.90;;;;;;5072046;28;20024;-52
2024/01/22 04:52:50;;;;;;;6.57;3.05;;;9.80;99.90;;;;;;5071616;28;20145;-54
2024/01/22 04:55:16;;;;;;;6.20;3.20;;;9.90;99.90;;;;;;5072170;28;20033;-53
2024/01/22 04:57:42;;;;;;;5.22;2.75;;;10.40;99.90;;;;;;5071870;28;20146;-50
2024/01/22 05:00:08;;;;;;;5.32;2.88;;;10.00;99.90;;;;;;5071767;28;20527;-50
2024/01/22 05:02:34;;;;;;;6.75;2.80;;;10.00;99.90;;;;;;5071474;28;20032;-52
2024/01/22 05:05:01;;;;;;;4.18;2.60;;;10.40;99.90;;;;;;5071783;28;20032;-50
2024/01/22 05:07:27;;;;;;;5.60;2.58;;;10.00;99.90;;;;;;5070023;28;20392;-53
2024/01/22 05:09:58;;;;;;;4.35;2.30;;;10.70;99.90;;;;;;5071498;28;20048;-52
2024/01/22 05:12:24;;;;;;;5.25;2.22;;;10.20;99.90;;;;;;5071905;28;20041;-51
2024/01/22 05:14:51;;;;;;;3.90;2.30;;;10.40;99.90;;;;;;5070961;28;20128;-48
2024/01/22 05:17:16;;;;;;;4.53;2.10;;;10.30;99.90;;;;;;5071607;28;20051;-53
2024/01/22 05:19:42;;;;;;;3.72;1.73;;;10.80;99.90;;;;;;5071502;28;20361;-52
2024/01/22 05:22:08;;;;;;;5.05;1.80;;;10.80;99.90;;;;;;5071251;28;20028;-53
2024/01/22 05:24:34;;;;;;;4.00;1.77;;;11.00;99.90;;;;;;5071264;28;20041;-53
2024/01/22 05:27:02;;;;;;;4.07;1.55;;;10.80;99.90;;;;;;5071149;28;20123;-53
2024/01/22 05:29:28;;;;;;;5.47;1.35;;;10.80;99.90;;;;;;5071487;28;20120;-52
2024/01/22 05:31:53;;;;;;;6.80;1.17;;;11.10;99.90;;;;;;5069808;28;20072;-53
2024/01/22 05:34:19;;;;;;;5.35;1.10;;;10.90;99.90;;;;;;5071165;28;20514;-55
2024/01/22 05:36:46;;;;;;;3.25;1.10;;;11.20;99.90;;;;;;5070594;28;20041;-55
2024/01/22 05:39:12;;;;;;;4.30;1.17;;;11.20;99.90;;;;;;5071308;28;20040;-54
2024/01/22 05:41:40;;;;;;;4.03;1.05;;;11.00;99.90;;;;;;5071201;28;20044;-51
2024/01/22 05:44:06;;;;;;;2.72;0.90;;;11.30;99.90;;;;;;5070799;28;20033;-54
2024/01/22 05:46:32;;;;;;;4.63;1.42;;;11.30;99.90;;;;;;5071290;28;20036;-54
2024/01/22 05:48:58;;;;;;;5.05;1.15;;;11.00;99.90;;;;;;5070720;28;20540;-54
2024/01/22 05:51:24;;;;;;;2.83;0.90;;;11.00;99.90;;;;;;5070730;28;20080;-54
2024/01/22 05:53:50;;;;;;;4.18;1.20;;;11.00;99.90;;;;;;5070827;28;20082;-54
2024/01/22 05:56:25;;;;;;;5.22;1.08;;;10.90;99.90;;;;;;5071068;28;20051;-55
2024/01/22 05:58:52;;;;;;;4.40;1.15;;;11.30;99.90;;;;;;5070527;28;20036;-50
2024/01/22 06:01:26;;;;;;;2.80;1.20;;;11.20;99.90;;;;;;5070602;28;20044;-55
2024/01/22 06:03:52;;;;;;;3.72;1.40;;;11.20;99.90;;;;;;5070389;28;20521;-53
2024/01/22 06:06:19;;;;;;;4.93;1.42;;;11.20;99.90;;;;;;5071125;28;20102;-53
2024/01/22 06:08:47;;;;;;;3.92;1.50;;;10.80;99.90;;;;;;5070488;28;20029;-54
2024/01/22 06:11:13;;;;;;;3.63;1.27;;;10.80;99.90;;;;;;5070813;28;20032;-55
2024/01/22 06:13:39;;;;;;;4.93;1.63;;;11.10;99.90;;;;;;5069319;28;20040;-55
2024/01/22 06:16:09;;;;;;;7.82;1.83;;;10.90;99.90;;;;;;5070477;28;20139;-52
2024/01/22 06:18:36;;;;;;;2.95;1.50;;;11.10;99.90;;;;;;5070368;28;20050;-55
2024/01/22 06:21:03;;;;;;;5.90;1.65;;;11.00;99.90;;;;;;5070546;28;20055;-55
2024/01/22 06:23:28;;;;;;;3.67;1.70;;;11.00;99.90;;;;;;5070493;28;20048;-56
2024/01/22 06:25:56;;;;;;;4.57;1.38;;;10.80;99.90;;;;;;5068681;28;20054;-55
2024/01/22 06:28:23;;;;;;;7.43;1.88;;;10.80;99.90;;;;;;5070783;28;20049;-54
2024/01/22 06:30:48;;;;;;;5.60;1.85;;;11.00;99.90;;;;;;5070387;28;20040;-52
2024/01/22 06:33:14;;;;;;;8.65;2.20;;;10.90;99.90;;;;;;5070249;28;20041;-55
2024/01/22 06:35:40;;;;;;;9.52;2.50;;;11.10;99.90;;;;;;5070020;28;20188;-52
2024/01/22 06:38:05;;;;;;;9.32;2.17;;;10.50;99.90;;;;;;5068533;28;20062;-54
2024/01/22 06:40:33;;;;;;;12.15;2.67;;;11.10;99.90;;;;;;5068915;28;20395;-52
2024/01/22 06:42:59;;;;;;;9.70;2.63;;;10.70;99.90;;;;;;5069617;28;20051;-54
2024/01/22 06:45:25;;;;;;;13.95;2.85;;;10.70;99.90;;;;;;5069690;28;20044;-50
2024/01/22 06:47:52;;;;;;;14.68;2.85;;;10.70;99.90;;;;;;5070339;28;20051;-50
2024/01/22 06:50:18;;;;;;;15.43;2.90;;;11.30;99.90;;;;;;5068485;28;20032;-52
2024/01/22 06:52:46;;;;;;;16.15;3.03;;;11.00;99.90;;;;;;5069363;28;20144;-54
2024/01/22 06:55:12;;;;;;;17.85;3.13;;;11.30;99.90;;;;;;5070180;28;20029;-53
2024/01/22 06:57:38;;;;;;;12.57;2.33;;;12.10;99.90;;;;;;5070021;28;20107;-55
2024/01/22 07:00:07;;;;;;;12.32;2.78;;;11.30;99.90;;;;;;5069233;28;20136;-52
2024/01/22 07:02:38;;;;;;;19.92;3.55;;;11.40;99.90;;;;;;5068486;28;20051;-55
2024/01/22 07:05:05;;;;;;;14.82;3.03;;;11.10;99.90;;;;;;5067716;28;20045;-55
2024/01/22 07:07:32;;;;;;;17.08;3.80;;;11.10;99.90;;;;;;5069743;28;20047;-55
2024/01/22 07:09:58;;;;;;;21.08;3.42;;;11.30;99.90;;;;;;5070291;28;20039;-51
2024/01/22 07:12:24;;;;;;;15.15;3.15;;;11.10;99.90;;;;;;5069767;28;20102;-54
2024/01/22 07:14:50;;;;;;;16.05;3.50;;;11.30;99.90;;;;;;5069501;28;20044;-54
2024/01/22 07:17:17;;;;;;;19.25;3.10;;;11.00;99.90;;;;;;5070057;28;20037;-55
2024/01/22 07:19:43;;;;;;;17.75;3.38;;;11.20;99.90;;;;;;5070014;28;20462;-51
2024/01/22 07:22:09;;;;;;;21.50;3.38;;;11.20;99.90;;;;;;5069649;28;20127;-52
2024/01/22 07:24:36;;;;;;;20.52;3.20;;;11.20;99.90;;;;;;5069954;28;20115;-53
2024/01/22 07:27:01;;;;;;;22.38;4.18;;;11.00;99.90;;;;;;5069596;28;20039;-55
2024/01/22 07:29:27;;;;;;;21.27;4.43;;;11.20;99.90;;;;;;5068604;28;20036;-49
2024/01/22 07:31:53;;;;;;;19.90;3.95;;;11.00;99.90;;;;;;5070097;28;20086;-52
2024/01/22 07:34:20;;;;;;;22.65;3.78;;;11.00;99.90;;;;;;5069796;28;20043;-51
2024/01/22 07:36:45;;;;;;;24.98;4.07;;;10.90;99.90;;;;;;5069849;28;20150;-53
2024/01/22 07:39:11;;;;;;;23.75;4.07;;;10.80;99.90;;;;;;5071112;28;20071;-52
2024/01/22 07:41:40;;;;;;;21.40;4.40;;;10.80;99.90;;;;;;5073331;28;20044;-54
2024/01/22 07:44:06;;;;;;;21.42;3.92;;;10.70;99.90;;;;;;5073238;28;20033;-51
2024/01/22 07:46:32;;;;;;;19.40;3.60;;;10.80;99.90;;;;;;5073341;28;20036;-51
2024/01/22 07:48:58;;;;;;;21.00;3.88;;;10.80;99.90;;;;;;5073202;28;20083;-51
2024/01/22 07:51:24;;;;;;;18.85;3.75;;;10.60;99.90;;;;;;5073377;28;20064;-50
2024/01/22 07:53:50;;;;;;;25.27;4.97;;;10.90;99.90;;;;;;5072913;28;20082;-54
2024/01/22 07:56:16;;;;;;;22.10;4.47;;;10.90;99.90;;;;;;5071876;28;20123;-53
2024/01/22 07:58:42;;;;;;;21.08;5.25;;;10.50;99.90;;;;;;5072560;28;20076;-54
2024/01/22 08:01:08;;;;;;;20.90;4.38;;;10.90;99.90;;;;;;5072964;28;20075;-53
2024/01/22 08:03:34;;;;;;;21.98;4.55;;;10.70;99.90;;;;;;5072832;28;20064;-55
2024/01/22 08:06:00;;;;;;;26.15;4.80;;;10.90;99.90;;;;;;5071586;28;20048;-54
2024/01/22 08:08:29;;;;;;;23.10;5.20;;;10.50;99.90;;;;;;5072502;28;20036;-52
2024/01/22 08:10:55;;;;;;;18.92;4.93;;;10.90;99.90;;;;;;5072514;28;20029;-53
2024/01/22 08:13:21;;;;;;;26.40;5.35;;;10.80;99.90;;;;;;5072710;28;20093;-51
2024/01/22 08:15:48;;;;;;;27.27;4.85;;;10.30;99.90;;;;;;5071401;28;20133;-54
2024/01/22 08:18:14;;;;;;;25.98;5.68;;;10.40;99.90;;;;;;5072950;28;20052;-53
2024/01/22 08:20:40;;;;;;;27.38;5.88;;;10.50;99.90;;;;;;5072624;28;20603;-54
2024/01/22 08:23:06;;;;;;;33.38;7.13;;;10.50;99.90;;;;;;5072421;28;20457;-52
2024/01/22 08:25:32;;;;;;;35.72;7.10;;;10.80;99.90;;;;;;5070199;28;20024;-54
2024/01/22 08:27:58;;;;;;;32.42;6.45;;;10.70;99.90;;;;;;5063563;28;20040;-54
2024/01/22 08:30:25;;;;;;;35.53;7.10;;;10.60;99.90;;;;;;5065501;28;20129;-55
2024/01/22 08:32:51;;;;;;;30.85;7.32;;;10.20;99.90;;;;;;5063261;28;20056;-57
2024/01/22 08:35:21;;;;;;;31.65;6.75;;;10.20;99.90;;;;;;5063544;28;20032;-55
2024/01/22 08:37:52;;;;;;;32.13;6.22;;;10.70;99.90;;;;;;5064892;28;20045;-57
2024/01/22 08:40:21;;;;;;;38.45;7.07;;;11.00;99.90;;;;;;5065192;28;20119;-56
2024/01/22 08:42:54;;;;;;;35.80;6.85;;;10.50;99.90;;;;;;5065019;28;20384;-55
2024/01/22 08:45:21;;;;;;;42.03;7.25;;;10.50;99.90;;;;;;5064592;28;20040;-54
2024/01/22 08:47:48;;;;;;;44.25;6.95;;;10.30;99.90;;;;;;5064643;28;20036;-56
2024/01/22 08:50:17;;;;;;;45.55;7.63;;;10.40;99.90;;;;;;5063459;28;20043;-55
2024/01/22 08:52:42;;;;;;;33.53;6.22;;;10.50;99.90;;;;;;5064776;28;20487;-56
2024/01/22 08:55:09;;;;;;;29.88;5.72;;;10.80;99.90;;;;;;5062749;28;20112;-57
2024/01/22 08:57:35;;;;;;;36.65;6.20;;;10.70;99.90;;;;;;5064565;28;20837;-54
2024/01/22 09:00:05;;;;;;;41.60;7.10;;;10.60;99.90;;;;;;5060633;28;20600;-53
2024/01/22 09:02:31;;;;;;;43.50;7.35;;;10.20;99.90;;;;;;5061889;28;20032;-54
2024/01/22 09:04:57;;;;;;;48.78;8.05;;;10.80;99.90;;;;;;5064235;28;20035;-54
2024/01/22 09:07:23;;;;;;;47.03;7.63;;;10.00;99.90;;;;;;5061375;28;20554;-55
2024/01/22 09:09:50;;;;;;;51.25;8.02;;;10.80;99.90;;;;;;5061422;28;20504;-54
2024/01/22 09:12:18;;;;;;;54.78;8.45;;;10.40;99.90;;;;;;5062710;28;20060;-54
2024/01/22 09:14:44;;;;;;;44.80;8.20;;;10.30;99.90;;;;;;5064505;28;20578;-53
2024/01/22 09:17:09;;;;;;;51.83;8.13;;;10.40;99.90;;;;;;5061320;28;20060;-57
2024/01/22 09:19:35;;;;;;;51.45;8.60;;;10.70;99.90;;;;;;5066434;28;20250;-55
2024/01/22 09:22:01;;;;;;;49.17;7.93;;;10.30;99.90;;;;;;5059745;28;20048;-56
2024/01/22 09:24:26;;;;;;;56.33;9.00;;;10.30;99.90;;;;;;5061732;28;21454;-56
2024/01/22 09:26:52;;;;;;;50.03;8.95;;;10.50;99.90;;;;;;5062127;28;20112;-53
2024/01/22 09:29:18;;;;;;;52.47;8.75;;;10.70;99.90;;;;;;5066265;28;20061;-54
2024/01/22 09:31:43;;;;;;;51.25;9.52;;;10.30;99.90;;;;;;5064340;28;20031;-56
2024/01/22 09:34:10;;;;;;;65.40;10.93;;;10.20;99.90;;;;;;5064104;28;20040;-54
2024/01/22 09:36:36;;;;;;;51.95;9.07;;;10.20;99.90;;;;;;5062516;28;20459;-55
2024/01/22 09:39:02;;;;;;;56.22;8.43;;;10.60;99.90;;;;;;5063162;28;20056;-54
2024/01/22 09:41:29;;;;;;;60.20;8.43;;;10.20;99.90;;;;;;5063782;28;20066;-51
2024/01/22 09:43:55;;;;;;;49.53;8.30;;;10.10;99.90;;;;;;5062318;28;20048;-54
2024/01/22 09:46:22;;;;;;;56.28;8.88;;;10.50;99.90;;;;;;5064136;28;20036;-55
2024/01/22 09:48:51;;;;;;;53.17;8.77;;;10.10;99.90;;;;;;5064449;28;20060;-52
2024/01/22 09:51:17;;;;;;;48.20;8.07;;;10.50;99.90;;;;;;5062874;28;20045;-51
2024/01/22 09:53:47;;;;;;;53.35;8.50;;;10.40;99.90;;;;;;5062785;28;20032;-52
2024/01/22 09:56:19;;;;;;;48.30;7.85;;;10.40;99.90;;;;;;5062646;28;20062;-51
2024/01/22 09:58:46;;;;;;;50.50;7.68;;;10.10;99.90;;;;;;5064591;28;20115;-53
2024/01/22 10:01:12;;;;;;;45.95;8.38;;;10.40;99.90;;;;;;5065466;28;20088;-56
2024/01/22 10:03:39;;;;;;;59.22;9.23;;;10.20;99.90;;;;;;5062626;28;20059;-53
2024/01/22 10:06:05;;;;;;;48.28;8.63;;;10.20;99.90;;;;;;5063709;28;20408;-55
2024/01/22 10:08:31;;;;;;;55.78;8.35;;;10.20;99.90;;;;;;5063251;28;20032;-53
2024/01/22 10:10:57;;;;;;;50.05;8.23;;;10.10;99.90;;;;;;5062115;28;20070;-56
2024/01/22 10:13:23;;;;;;;60.90;9.18;;;10.60;99.90;;;;;;5063199;28;20082;-53
2024/01/22 10:15:49;;;;;;;52.22;8.35;;;10.20;99.90;;;;;;5063416;28;20052;-54
2024/01/22 10:18:16;;;;;;;51.30;8.65;;;10.40;99.90;;;;;;5064224;28;20468;-52
2024/01/22 10:20:44;;;;;;;48.10;8.10;;;10.20;99.90;;;;;;5062723;28;20033;-54
2024/01/22 10:23:11;;;;;;;63.38;9.88;;;10.30;99.90;;;;;;5063857;28;20499;-51
2024/01/22 10:25:37;;;;;;;45.28;8.30;;;10.20;99.90;;;;;;5063119;28;20039;-55
2024/01/22 10:28:19;;;;;;;54.63;9.73;;;10.20;99.90;;;;;;5061331;28;20029;-54
2024/01/22 10:31:03;;;;;;;44.22;8.70;;;10.30;99.90;;;;;;5062328;28;20032;-54
2024/01/22 10:33:29;;;;;;;48.63;9.00;;;10.40;99.90;;;;;;5060535;28;20033;-52
2024/01/22 10:35:57;;;;;;;47.92;7.97;;;10.00;99.90;;;;;;5062074;28;20036;-51
2024/01/22 10:38:24;;;;;;;52.40;7.95;;;10.30;99.90;;;;;;5064117;28;20111;-51
2024/01/22 10:40:49;;;;;;;54.67;8.32;;;10.10;99.90;;;;;;5063514;28;20032;-53
2024/01/22 10:43:19;;;;;;;49.55;8.35;;;10.20;99.90;;;;;;5064145;28;20051;-55
2024/01/22 10:45:49;;;;;;;43.92;7.97;;;10.20;99.90;;;;;;5063039;28;20044;-54
2024/01/22 10:48:23;;;;;;;39.65;8.10;;;10.20;99.90;;;;;;5063350;28;20037;-48
2024/01/22 10:50:51;;;;;;;40.92;7.38;;;9.90;99.90;;;;;;5065902;28;20376;-55
2024/01/22 10:53:16;;;;;;;48.28;8.25;;;10.00;99.90;;;;;;5064263;28;20036;-54
2024/01/22 10:55:59;;;;;;;52.28;8.70;;;10.00;99.90;;;;;;5062138;28;20040;-53
2024/01/22 10:58:29;;;;;;;45.10;7.78;;;10.00;99.90;;;;;;5062761;28;20056;-53
2024/01/22 11:01:01;;;;;;;43.03;8.95;;;10.10;99.90;;;;;;5064350;28;20050;-55
2024/01/22 11:03:28;;;;;;;40.28;8.35;;;10.20;99.90;;;;;;5061302;28;20403;-53
2024/01/22 11:06:00;;;;;;;43.28;7.43;;;10.60;99.90;;;;;;5064642;28;20056;-52
2024/01/22 11:08:30;;;;;;;33.42;7.03;;;10.70;99.90;;;;;;5061866;28;20124;-52
2024/01/22 11:10:56;;;;;;;35.03;7.35;;;10.80;99.90;;;;;;5066673;28;20044;-56
2024/01/22 11:13:22;;;;;;;41.33;8.57;;;10.90;99.90;;;;;;5060429;28;20044;-53
2024/01/22 11:15:48;;;;;;;44.15;7.28;;;11.00;99.90;;;;;;5063000;28;20159;-54
2024/01/22 11:18:14;;;;;;;46.78;7.32;;;11.10;99.90;;;;;;5065853;28;20110;-52
2024/01/22 11:20:40;;;;;;;36.00;6.68;;;11.00;99.90;;;;;;5064496;28;20032;-54
2024/01/22 11:23:09;;;;;;;38.95;7.10;;;11.10;99.90;;;;;;5064144;28;20479;-54
2024/01/22 11:25:35;;;;;;;44.70;7.28;;;11.10;99.90;;;;;;5065549;28;20068;-55
2024/01/22 11:28:02;;;;;;;39.45;7.05;;;11.20;99.90;;;;;;5067732;28;20313;-54
2024/01/22 11:30:32;;;;;;;38.22;7.05;;;11.30;99.90;;;;;;5066869;28;20127;-53
2024/01/22 11:32:58;;;;;;;38.03;6.35;;;11.40;99.90;;;;;;5066650;28;20048;-55
2024/01/22 11:35:38;;;;;;;36.53;6.28;;;11.40;99.90;;;;;;5067362;28;20036;-54
2024/01/22 11:38:07;;;;;;;36.25;7.50;;;10.60;99.90;;;;;;5064336;28;20044;-53
2024/01/22 11:40:48;;;;;;;35.85;6.55;;;11.70;99.90;;;;;;5065933;28;20082;-53
2024/01/22 11:43:16;;;;;;;31.70;6.30;;;11.80;99.90;;;;;;5064893;28;20119;-55
2024/01/22 11:45:43;;;;;;;35.95;6.32;;;11.90;99.90;;;;;;5065157;28;20120;-53
2024/01/22 11:48:20;;;;;;;39.63;6.80;;;12.00;99.90;;;;;;5064361;28;20111;-55
2024/01/22 11:51:00;;;;;;;33.65;6.32;;;12.00;99.90;;;;;;5054804;28;20044;-52
2024/01/22 11:53:27;;;;;;;29.08;5.80;;;12.10;99.90;;;;;;5058320;28;20048;-51
2024/01/22 11:56:04;;;;;;;31.20;5.30;;;12.10;99.90;;;;;;5067023;28;20091;-54
2024/01/22 11:58:32;;;;;;;32.60;5.88;;;12.00;99.90;;;;;;5059463;28;20507;-55
2024/01/22 12:00:59;;;;;;;29.27;5.20;;;12.10;99.90;;;;;;5060317;28;20119;-53
2024/01/22 12:03:26;;;;;;;32.47;6.05;;;12.00;99.90;;;;;;5062919;28;20044;-52
2024/01/22 12:06:05;;;;;;;28.27;5.00;;;12.00;99.90;;;;;;5062574;28;20025;-53
2024/01/22 12:08:35;;;;;;;27.75;5.75;;;11.90;99.90;;;;;;5061142;28;20071;-53
2024/01/22 12:11:11;;;;;;;26.38;5.80;;;11.90;99.90;;;;;;5063547;28;20961;-52
2024/01/22 12:13:39;;;;;;;29.45;5.25;;;12.00;99.90;;;;;;5061936;28;20057;-55
2024/01/22 12:16:13;;;;;;;30.95;5.05;;;11.80;99.90;;;;;;5061964;28;20052;-54
2024/01/22 12:18:39;;;;;;;34.72;5.57;;;11.60;99.90;;;;;;5061597;28;20039;-53
2024/01/22 12:21:05;;;;;;;29.65;5.57;;;11.40;99.90;;;;;;5062399;28;20040;-53
2024/01/22 12:23:31;;;;;;;30.17;5.82;;;11.30;99.90;;;;;;5045181;28;20135;-55
2024/01/22 12:25:58;;;;;;;29.13;5.18;;;11.40;99.90;;;;;;5060020;28;20072;-55
2024/01/22 12:28:25;;;;;;;31.45;5.78;;;11.50;99.90;;;;;;5062272;28;20059;-51
2024/01/22 12:31:02;;;;;;;23.20;4.72;;;11.60;99.90;;;;;;5060494;28;20024;-53
2024/01/22 12:33:33;;;;;;;28.83;5.00;;;11.70;99.90;;;;;;5059531;28;20044;-54
2024/01/22 12:36:13;;;;;;;27.48;5.18;;;11.60;99.90;;;;;;5059623;28;20112;-53
2024/01/22 12:38:57;;;;;;;28.55;5.55;;;11.70;99.90;;;;;;5061330;28;20040;-50
2024/01/22 12:41:24;;;;;;;26.38;5.25;;;11.60;99.90;;;;;;5075332;28;20049;-54
2024/01/22 12:43:54;;;;;;;33.00;5.97;;;11.70;99.90;;;;;;5061828;28;20044;-53